Time;durP1;ratioP1;P1;durP2;ratioP2;P2;SDS_P1;SDS_P2;PMS_P1;PMS_P2;Temp;Humidity;BMP_temperature;BMP_pressure;BME280_temperature;BME280_humidity;BME280_pressure;Samples;Min_cycle;Max_cycle;Signal;HPM_P1;HPM_P2
2023/01/03 00:01:29;;;;;;;10.90;3.22;;;3.90;99.90;;;;;;4895781;29;20044;-88
2023/01/03 00:03:56;;;;;;;6.00;3.25;;;3.90;99.90;;;;;;4897097;29;20044;-89
2023/01/03 00:06:25;;;;;;;8.23;2.88;;;3.90;99.90;;;;;;4882601;29;20067;-89
2023/01/03 00:08:52;;;;;;;8.75;2.60;;;5.00;99.90;;;;;;4893594;29;20198;-90
2023/01/03 00:12:22;;;;;;;9.50;3.50;;;5.60;99.90;;;;;;4916728;29;20543;-90
2023/01/03 00:14:13;;;;;;;10.48;2.58;;;3.90;99.90;;;;;;4917161;29;20047;-89
2023/01/03 00:16:39;;;;;;;4.95;2.40;;;4.00;99.90;;;;;;4880660;29;20130;-90
2023/01/03 00:19:13;;;;;;;8.60;3.28;;;3.00;99.90;;;;;;4888736;29;20120;-90
2023/01/03 00:21:39;;;;;;;5.65;2.50;;;4.00;99.90;;;;;;4892107;29;20131;-89
2023/01/03 00:24:06;;;;;;;8.15;2.50;;;4.90;99.90;;;;;;4896817;29;20574;-89
2023/01/03 00:26:32;;;;;;;9.85;2.83;;;4.00;99.90;;;;;;4897004;29;20062;-89
2023/01/03 00:28:58;;;;;;;5.10;2.50;;;4.60;99.90;;;;;;4899114;29;20035;-90
2023/01/03 00:31:24;;;;;;;7.55;2.10;;;4.20;99.90;;;;;;4895701;29;20827;-90
2023/01/03 00:33:50;;;;;;;4.30;1.95;;;4.00;99.90;;;;;;4908194;29;20040;-89
2023/01/03 00:36:16;;;;;;;6.72;2.50;;;4.10;99.90;;;;;;4898884;29;20035;-89
2023/01/03 00:38:42;;;;;;;4.43;2.38;;;4.00;99.90;;;;;;4881128;29;20036;-89
2023/01/03 00:41:10;;;;;;;6.15;2.88;;;5.50;99.90;;;;;;4901396;29;20044;-88
2023/01/03 00:43:37;;;;;;;6.88;2.83;;;4.90;99.90;;;;;;4889807;29;20075;-90
2023/01/03 00:46:04;;;;;;;6.10;2.45;;;5.00;99.90;;;;;;4886134;29;20079;-89
2023/01/03 00:48:30;;;;;;;7.18;2.50;;;4.00;99.90;;;;;;4898093;29;20039;-89
2023/01/03 00:50:56;;;;;;;5.55;2.38;;;5.30;99.90;;;;;;4880953;29;20067;-90
2023/01/03 00:53:22;;;;;;;6.72;2.55;;;4.80;99.90;;;;;;4914388;29;20040;-89
2023/01/03 00:55:49;;;;;;;5.18;2.65;;;4.00;99.90;;;;;;4901978;29;20094;-89
2023/01/03 00:58:14;;;;;;;;;;;4.00;99.90;;;;;;4899846;29;20036;-89
2023/01/03 01:00:40;;;;;;;7.40;2.38;;;4.10;99.90;;;;;;4897792;29;19978;-89
2023/01/03 01:03:06;;;;;;;11.45;2.47;;;4.00;99.90;;;;;;4891131;29;20492;-89
2023/01/03 01:05:32;;;;;;;5.78;2.58;;;4.50;99.90;;;;;;4890182;29;20099;-89
2023/01/03 01:07:58;;;;;;;5.63;2.47;;;5.00;99.90;;;;;;4881633;29;20040;-89
2023/01/03 01:10:24;;;;;;;7.07;2.40;;;5.40;99.90;;;;;;4900573;29;20048;-89
2023/01/03 01:12:53;;;;;;;8.85;2.17;;;4.20;99.90;;;;;;4873368;29;20043;-89
2023/01/03 01:15:19;;;;;;;4.40;2.30;;;4.20;99.90;;;;;;4885936;29;20056;-88
2023/01/03 01:17:45;;;;;;;8.85;3.15;;;4.20;99.90;;;;;;4879256;29;20063;-88
2023/01/03 01:20:12;;;;;;;8.05;2.53;;;4.40;99.90;;;;;;4883936;29;20068;-88
2023/01/03 01:22:38;;;;;;;6.47;2.47;;;4.20;99.90;;;;;;4881578;29;20035;-88
2023/01/03 01:25:04;;;;;;;5.88;2.30;;;4.30;99.90;;;;;;4873046;29;20523;-88
2023/01/03 01:27:30;;;;;;;8.82;2.80;;;4.30;99.90;;;;;;4893653;29;20059;-89
2023/01/03 01:29:56;;;;;;;5.68;2.53;;;4.30;99.90;;;;;;4897689;29;20047;-88
2023/01/03 01:32:22;;;;;;;6.47;2.70;;;4.30;99.90;;;;;;4870831;29;20043;-88
2023/01/03 01:34:47;;;;;;;8.73;2.58;;;4.30;99.90;;;;;;4880151;29;20042;-89
2023/01/03 01:37:13;;;;;;;5.97;2.83;;;5.60;99.90;;;;;;4893976;29;20048;-89
2023/01/03 01:39:39;;;;;;;6.07;2.40;;;4.60;99.90;;;;;;4912122;29;20115;-89
2023/01/03 01:44:57;;;;;;;7.55;2.15;;;4.40;99.90;;;;;;4908096;29;20123;-89
2023/01/03 01:47:23;;;;;;;7.93;3.78;;;4.40;99.90;;;;;;4894113;29;20094;-88
2023/01/03 01:50:10;;;;;;;7.00;3.20;;;4.40;99.90;;;;;;4892260;29;20043;-89
2023/01/03 01:52:39;;;;;;;6.85;3.00;;;5.30;99.90;;;;;;4898710;29;20388;-89
2023/01/03 01:55:09;;;;;;;8.50;2.55;;;4.40;99.90;;;;;;4890278;29;20146;-89
2023/01/03 01:57:37;;;;;;;7.55;2.80;;;4.30;99.90;;;;;;4891997;29;20420;-88
2023/01/03 02:00:05;;;;;;;7.88;3.28;;;5.00;99.90;;;;;;4896433;29;20039;-89
2023/01/03 02:02:31;;;;;;;6.40;2.97;;;4.30;99.90;;;;;;4881981;29;20040;-89
2023/01/03 02:04:59;;;;;;;6.17;2.50;;;4.30;99.90;;;;;;4892457;29;20027;-90
2023/01/03 02:07:25;;;;;;;7.43;3.45;;;4.20;99.90;;;;;;4894112;29;20303;-90
2023/01/03 02:09:55;;;;;;;6.32;2.80;;;4.20;99.90;;;;;;4906617;29;20047;-89
2023/01/03 02:15:58;;;;;;;8.45;2.80;;;4.20;99.90;;;;;;4909505;29;20055;-90
2023/01/03 02:19:00;;;;;;;4.43;2.55;;;4.20;99.90;;;;;;4910274;29;20063;-89
2023/01/03 02:22:11;;;;;;;6.75;2.58;;;4.20;99.90;;;;;;4860056;29;20131;-89
2023/01/03 02:25:05;;;;;;;9.05;2.90;;;4.20;99.90;;;;;;4913405;29;20039;-90
2023/01/03 02:27:31;;;;;;;9.45;3.42;;;4.20;99.90;;;;;;4915325;29;20048;-89
2023/01/03 02:30:27;;;;;;;10.13;2.93;;;4.20;99.90;;;;;;4897224;29;20051;-90
2023/01/03 02:33:21;;;;;;;9.35;2.85;;;4.20;99.90;;;;;;4894817;29;20035;-89
2023/01/03 02:36:04;;;;;;;5.28;2.47;;;4.30;99.90;;;;;;4873964;29;20052;-89
2023/01/03 02:38:50;;;;;;;7.30;2.97;;;4.20;99.90;;;;;;4897212;29;21627;-90
2023/01/03 02:41:43;;;;;;;9.48;3.08;;;4.20;99.90;;;;;;4912218;29;20370;-90
2023/01/03 02:44:32;;;;;;;12.13;3.80;;;4.20;99.90;;;;;;4896541;29;20122;-90
2023/01/03 02:47:01;;;;;;;7.75;3.22;;;4.20;99.90;;;;;;4892499;29;20044;-89
2023/01/03 02:49:33;;;;;;;4.35;2.60;;;4.20;99.90;;;;;;4910879;29;20043;-89
2023/01/03 02:52:21;;;;;;;5.97;2.85;;;4.20;99.90;;;;;;4894195;29;20043;-89
2023/01/03 02:55:01;;;;;;;8.20;3.10;;;4.10;99.90;;;;;;4896018;29;20031;-89
2023/01/03 02:57:46;;;;;;;4.03;2.58;;;4.00;99.90;;;;;;4899123;29;20072;-90
2023/01/03 03:00:15;;;;;;;7.53;2.78;;;4.00;99.90;;;;;;4893061;29;20406;-89
2023/01/03 03:02:48;;;;;;;7.35;2.95;;;4.00;99.90;;;;;;4909943;29;20040;-90
2023/01/03 03:05:23;;;;;;;7.07;2.92;;;5.30;99.90;;;;;;4893738;29;20090;-90
2023/01/03 03:07:49;;;;;;;5.65;2.60;;;3.80;99.90;;;;;;4905412;29;20044;-89
2023/01/03 03:13:17;;;;;;;8.32;3.20;;;3.70;99.90;;;;;;4903868;29;20107;-88
2023/01/03 03:16:08;;;;;;;7.75;2.95;;;3.70;99.90;;;;;;4894760;29;20059;-88
2023/01/03 03:18:50;;;;;;;6.97;2.75;;;3.60;99.90;;;;;;4893096;29;20056;-88
2023/01/03 03:26:54;;;;;;;7.53;2.55;;;3.50;99.90;;;;;;4915546;29;19925;-88
2023/01/03 03:29:20;;;;;;;4.78;2.53;;;3.40;99.90;;;;;;4910000;29;20098;-88
2023/01/03 03:31:49;;;;;;;11.55;3.00;;;4.00;99.90;;;;;;4889470;29;20511;-88
2023/01/03 03:34:23;;;;;;;6.47;2.80;;;5.30;99.90;;;;;;4911623;29;20036;-88
2023/01/03 03:37:01;;;;;;;7.20;2.53;;;4.70;99.90;;;;;;4896606;29;20354;-88
2023/01/03 03:45:32;;;;;;;7.82;2.80;;;3.80;99.90;;;;;;4911179;29;20044;-89
2023/01/03 03:49:36;;;;;;;6.35;2.58;;;3.10;99.90;;;;;;4907838;29;20079;-88
2023/01/03 03:51:25;;;;;;;8.10;3.08;;;3.10;99.90;;;;;;4879379;29;20043;-88
2023/01/03 03:53:53;;;;;;;5.70;2.60;;;3.10;99.90;;;;;;4908482;29;20043;-88
2023/01/03 03:56:27;;;;;;;6.38;2.72;;;3.10;99.90;;;;;;4913021;29;20048;-88
2023/01/03 03:58:57;;;;;;;6.05;3.30;;;3.50;99.90;;;;;;4892319;29;20115;-87
2023/01/03 04:01:25;;;;;;;8.43;3.40;;;3.40;99.90;;;;;;4895119;29;20497;-88
2023/01/03 04:03:55;;;;;;;9.68;3.53;;;4.10;99.90;;;;;;4915404;29;20436;-88
2023/01/03 04:06:32;;;;;;;9.82;3.45;;;4.60;99.90;;;;;;4890185;29;20416;-88
2023/01/03 04:08:58;;;;;;;9.05;4.22;;;2.90;99.90;;;;;;4896724;29;20095;-88
2023/01/03 04:11:24;;;;;;;9.40;4.22;;;2.90;99.90;;;;;;4869546;29;20040;-88
2023/01/03 04:13:50;;;;;;;8.40;4.38;;;2.80;99.90;;;;;;4892817;29;20515;-88
2023/01/03 04:16:15;;;;;;;12.43;4.57;;;3.30;99.90;;;;;;4882649;29;20056;-88
2023/01/03 04:18:41;;;;;;;9.43;3.90;;;2.80;99.90;;;;;;4908651;29;20145;-88
2023/01/03 04:21:07;;;;;;;9.23;3.63;;;2.80;99.90;;;;;;4913375;29;20115;-88
2023/01/03 04:23:33;;;;;;;13.10;4.20;;;2.80;99.90;;;;;;4878887;29;20285;-88
2023/01/03 04:25:58;;;;;;;10.38;4.40;;;2.70;99.90;;;;;;4873977;29;20131;-88
2023/01/03 04:28:24;;;;;;;8.23;4.40;;;2.90;99.90;;;;;;4880817;29;20046;-88
2023/01/03 04:30:50;;;;;;;10.88;4.20;;;3.40;99.90;;;;;;4868397;29;20042;-87
2023/01/03 04:33:15;;;;;;;10.02;4.53;;;4.50;99.90;;;;;;4913513;29;20048;-87
2023/01/03 04:35:41;;;;;;;12.55;4.45;;;3.70;99.90;;;;;;4871472;29;20488;-87
2023/01/03 04:38:08;;;;;;;11.27;5.47;;;2.60;99.90;;;;;;4887837;29;20040;-88
2023/01/03 04:40:35;;;;;;;8.23;3.90;;;3.20;99.90;;;;;;4878300;29;20295;-88
2023/01/03 04:45:47;;;;;;;15.00;6.57;;;4.40;99.90;;;;;;4907422;29;20131;-87
2023/01/03 04:48:13;;;;;;;12.35;6.05;;;2.80;99.90;;;;;;4906764;29;20044;-88
2023/01/03 04:50:39;;;;;;;15.57;6.47;;;2.70;99.90;;;;;;4908209;29;20047;-88
2023/01/03 04:53:05;;;;;;;20.83;6.73;;;2.80;99.90;;;;;;4886704;29;20115;-88
2023/01/03 04:55:31;;;;;;;16.17;6.50;;;3.30;99.90;;;;;;4893459;29;20284;-88
2023/01/03 04:57:56;;;;;;;16.07;7.07;;;2.90;99.90;;;;;;4887737;29;20040;-87
2023/01/03 05:00:22;;;;;;;18.07;7.67;;;4.10;99.90;;;;;;4898285;29;20290;-88
2023/01/03 05:02:48;;;;;;;17.90;7.27;;;4.40;99.90;;;;;;4870951;29;20288;-88
2023/01/03 05:05:13;;;;;;;17.13;7.50;;;4.60;99.90;;;;;;4885487;29;20047;-88
2023/01/03 05:07:39;;;;;;;19.53;7.50;;;3.00;99.90;;;;;;4870055;29;20283;-88
2023/01/03 05:10:05;;;;;;;16.13;7.03;;;3.10;99.90;;;;;;4872287;29;20280;-87
2023/01/03 05:12:31;;;;;;;15.02;6.88;;;3.10;99.90;;;;;;4885969;29;20280;-87
2023/01/03 05:14:56;;;;;;;16.15;7.00;;;3.50;99.90;;;;;;4890987;29;20094;-87
2023/01/03 05:17:22;;;;;;;22.92;7.95;;;3.10;99.90;;;;;;4914310;29;20044;-87
2023/01/03 05:28:02;;;;;;;21.45;7.95;;;3.20;99.90;;;;;;4898705;29;20055;-87
2023/01/03 05:30:28;;;;;;;19.40;8.30;;;3.20;99.90;;;;;;4888290;29;20043;-87
2023/01/03 05:32:54;;;;;;;19.10;9.23;;;3.30;99.90;;;;;;4896338;29;20048;-90
2023/01/03 05:35:20;;;;;;;21.75;8.45;;;3.30;99.90;;;;;;4900446;29;20060;-88
2023/01/03 05:37:46;;;;;;;21.80;9.10;;;4.70;99.90;;;;;;4887178;29;20042;-90
2023/01/03 05:40:12;;;;;;;18.65;8.43;;;4.60;99.90;;;;;;4876591;29;20512;-88
2023/01/03 05:42:38;;;;;;;22.40;7.97;;;3.50;99.90;;;;;;4912587;29;20484;-88
2023/01/03 05:45:04;;;;;;;22.38;9.05;;;4.10;99.90;;;;;;4886589;29;20126;-87
2023/01/03 05:47:30;;;;;;;18.27;9.20;;;3.40;99.90;;;;;;4885721;29;20036;-86
2023/01/03 05:49:56;;;;;;;21.45;9.70;;;5.10;99.90;;;;;;4881093;29;20036;-89
2023/01/03 05:52:21;;;;;;;22.50;9.07;;;3.60;99.90;;;;;;4870333;29;20115;-88
2023/01/03 05:54:47;;;;;;;26.40;10.50;;;3.50;99.90;;;;;;4870235;29;20788;-90
2023/01/03 05:57:13;;;;;;;17.60;8.40;;;3.50;99.90;;;;;;4872968;29;20285;-88
2023/01/03 05:59:38;;;;;;;20.27;9.32;;;4.10;99.90;;;;;;4880135;29;20287;-90
2023/01/03 06:02:04;;;;;;;21.40;8.67;;;3.50;99.90;;;;;;4883261;29;20488;-90
2023/01/03 06:04:30;;;;;;;22.67;8.93;;;3.40;99.90;;;;;;4864902;29;20284;-86
2023/01/03 06:06:55;;;;;;;22.67;9.37;;;3.40;99.90;;;;;;4884210;29;20292;-89
2023/01/03 06:09:21;;;;;;;21.83;9.17;;;3.30;99.90;;;;;;4886812;29;20316;-89
2023/01/03 06:11:47;;;;;;;23.92;10.80;;;3.30;99.90;;;;;;4870838;29;20048;-88
2023/01/03 06:14:12;;;;;;;25.70;11.20;;;3.30;99.90;;;;;;4895144;29;20246;-87
2023/01/03 06:19:23;;;;;;;27.30;11.15;;;3.30;99.90;;;;;;4889746;29;20040;-91
2023/01/03 06:21:48;;;;;;;25.33;10.35;;;3.50;99.90;;;;;;4869485;29;20047;-90
2023/01/03 06:24:14;;;;;;;27.35;10.88;;;3.20;99.90;;;;;;4868794;29;20040;-90
2023/01/03 06:26:40;;;;;;;27.23;11.77;;;4.20;99.90;;;;;;4870559;29;20040;-90
2023/01/03 06:29:06;;;;;;;25.33;11.90;;;3.20;99.90;;;;;;4869348;29;20051;-90
2023/01/03 06:31:32;;;;;;;27.60;9.63;;;3.60;99.90;;;;;;4881950;29;20159;-90
2023/01/03 06:33:57;;;;;;;26.65;11.48;;;3.80;99.90;;;;;;4891913;29;20051;-89
2023/01/03 06:36:24;;;;;;;29.08;11.38;;;4.20;99.90;;;;;;4894081;29;20123;-89
2023/01/03 06:38:51;;;;;;;31.65;12.50;;;3.20;99.90;;;;;;4884349;29;20472;-90
2023/01/03 06:41:17;;;;;;;29.20;13.73;;;3.10;99.90;;;;;;4893824;29;20042;-90
2023/01/03 06:43:43;;;;;;;29.52;12.88;;;3.10;99.90;;;;;;4898070;29;20059;-90
2023/01/03 06:54:30;;;;;;;25.92;11.38;;;2.90;99.90;;;;;;4893299;29;20522;-89
2023/01/03 06:56:57;;;;;;;28.48;12.23;;;3.80;99.90;;;;;;4891616;29;20118;-89
2023/01/03 06:59:23;;;;;;;27.10;9.55;;;2.80;99.90;;;;;;4896108;29;20036;-90
2023/01/03 07:01:50;;;;;;;33.67;13.80;;;2.70;99.90;;;;;;4907139;29;20063;-89
2023/01/03 07:04:17;;;;;;;29.20;13.00;;;3.80;99.90;;;;;;4896402;29;20039;-90
2023/01/03 07:06:43;;;;;;;32.58;13.57;;;3.50;99.90;;;;;;4896268;29;20200;-91
2023/01/03 07:09:10;;;;;;;25.23;12.55;;;2.60;99.90;;;;;;4867631;29;20036;-89
2023/01/03 07:11:36;;;;;;;29.85;13.02;;;4.00;99.90;;;;;;4906470;29;20066;-90
2023/01/03 07:14:03;;;;;;;34.42;14.15;;;3.90;99.90;;;;;;4898189;29;20044;-90
2023/01/03 07:16:30;;;;;;;;;;;2.60;99.90;;;;;;4893851;29;20083;-90
2023/01/03 07:18:56;;;;;;;27.80;12.48;;;2.50;99.90;;;;;;4895194;29;19919;-90
2023/01/03 07:21:24;;;;;;;32.50;13.05;;;2.50;99.90;;;;;;4904928;29;20079;-90
2023/01/03 07:23:52;;;;;;;30.60;13.82;;;2.50;99.90;;;;;;4883580;29;20386;-90
2023/01/03 07:26:18;;;;;;;36.22;14.30;;;2.60;99.90;;;;;;4906181;29;20052;-90
2023/01/03 07:28:44;;;;;;;33.08;13.02;;;2.80;99.90;;;;;;4906627;29;20419;-90
2023/01/03 07:31:10;;;;;;;36.65;14.45;;;3.70;99.90;;;;;;4908056;29;20043;-90
2023/01/03 07:33:38;;;;;;;30.35;13.02;;;2.50;99.90;;;;;;4883810;29;20047;-92
2023/01/03 07:36:07;;;;;;;29.48;12.63;;;2.60;99.90;;;;;;4893189;29;20101;-91
2023/01/03 07:38:33;;;;;;;29.10;11.68;;;2.50;99.90;;;;;;4897976;29;20062;-89
2023/01/03 07:41:00;;;;;;;28.80;13.40;;;2.50;99.90;;;;;;4892293;29;20469;-92
2023/01/03 07:43:38;;;;;;;33.90;13.70;;;4.60;99.90;;;;;;4897975;29;20044;-89
2023/01/03 07:46:13;;;;;;;35.90;13.25;;;3.90;99.90;;;;;;4896083;29;20493;-89
2023/01/03 07:48:40;;;;;;;33.80;13.18;;;2.30;99.90;;;;;;4898743;29;20516;-91
2023/01/03 07:51:06;;;;;;;;;;;2.40;99.90;;;;;;4900213;29;20119;-91
2023/01/03 07:53:33;;;;;;;27.42;11.40;;;0.60;99.90;;;;;;4891072;29;20374;-89
2023/01/03 07:56:13;;;;;;;29.33;12.48;;;2.20;99.90;;;;;;4892841;29;20127;-90
2023/01/03 07:58:41;;;;;;;26.35;11.88;;;2.20;99.90;;;;;;4909899;29;20032;-91
2023/01/03 08:01:08;;;;;;;37.35;12.77;;;2.30;99.90;;;;;;4890446;29;20032;-90
2023/01/03 08:03:35;;;;;;;33.85;12.20;;;3.30;99.90;;;;;;4902142;29;20076;-89
2023/01/03 08:06:09;;;;;;;28.63;12.20;;;2.90;99.90;;;;;;4889797;29;20036;-90
2023/01/03 08:08:36;;;;;;;30.10;11.50;;;2.20;99.90;;;;;;4888915;29;20058;-89
2023/01/03 08:13:47;;;;;;;23.05;10.93;;;2.50;99.90;;;;;;4911964;29;20048;-90
2023/01/03 08:16:16;;;;;;;27.00;11.98;;;2.80;99.90;;;;;;4902144;29;20493;-88
2023/01/03 08:18:42;;;;;;;25.73;9.93;;;3.90;99.90;;;;;;4899725;29;20052;-89
2023/01/03 08:21:10;;;;;;;25.10;10.38;;;2.30;99.90;;;;;;4912935;29;20102;-90
2023/01/03 08:23:39;;;;;;;19.90;9.73;;;4.00;99.90;;;;;;4897683;29;20473;-90
2023/01/03 08:26:13;;;;;;;21.67;10.50;;;4.00;99.90;;;;;;4899475;29;20066;-89
2023/01/03 08:28:41;;;;;;;27.20;11.63;;;2.40;99.90;;;;;;4895229;29;20047;-89
2023/01/03 08:31:16;;;;;;;20.73;8.77;;;2.60;99.90;;;;;;4897157;29;20044;-89
2023/01/03 08:33:47;;;;;;;27.40;11.57;;;4.20;99.90;;;;;;4911335;29;20036;-89
2023/01/03 08:36:14;;;;;;;26.08;10.93;;;3.50;99.90;;;;;;4899234;29;20128;-88
2023/01/03 08:38:52;;;;;;;24.10;11.93;;;3.70;99.90;;;;;;4889096;29;20043;-89
2023/01/03 08:41:22;;;;;;;20.77;10.35;;;4.10;99.90;;;;;;4904897;29;20039;-89
2023/01/03 08:43:48;;;;;;;22.38;9.63;;;4.60;99.90;;;;;;4906366;29;20564;-89
2023/01/03 08:46:14;;;;;;;;;;;5.10;99.90;;;;;;4870470;29;20036;-89
2023/01/03 08:48:41;;;;;;;19.85;11.07;;;5.40;99.90;;;;;;4907281;29;19919;-88
2023/01/03 08:51:06;;;;;;;19.05;9.80;;;5.80;99.90;;;;;;4894685;29;20043;-89
2023/01/03 08:53:32;;;;;;;15.30;9.25;;;6.10;99.90;;;;;;4871411;29;20047;-90
2023/01/03 08:55:59;;;;;;;16.23;9.60;;;6.40;99.90;;;;;;4871124;29;20100;-89
2023/01/03 08:58:25;;;;;;;16.25;9.07;;;6.70;99.90;;;;;;4880467;29;20185;-90
2023/01/03 09:00:50;;;;;;;18.75;10.43;;;6.70;99.90;;;;;;4881745;29;20028;-90
2023/01/03 09:03:16;;;;;;;17.30;9.75;;;6.70;99.90;;;;;;4880597;29;20047;-89
2023/01/03 09:05:42;;;;;;;17.50;9.77;;;6.90;99.90;;;;;;4893997;29;20040;-89
2023/01/03 09:08:08;;;;;;;14.40;8.43;;;6.90;99.90;;;;;;4869837;29;20548;-89
2023/01/03 09:10:34;;;;;;;18.67;10.13;;;7.00;99.90;;;;;;4897738;29;20047;-89
2023/01/03 09:13:03;;;;;;;12.75;7.90;;;7.40;99.90;;;;;;4887727;29;20039;-88
2023/01/03 09:15:29;;;;;;;10.30;6.50;;;6.60;99.90;;;;;;4872328;29;20099;-89
2023/01/03 09:17:55;;;;;;;13.23;7.07;;;6.10;99.90;;;;;;4895309;29;20147;-88
2023/01/03 09:20:21;;;;;;;15.20;7.25;;;5.30;99.90;;;;;;4898022;29;20441;-89
2023/01/03 09:22:47;;;;;;;17.23;6.68;;;4.50;99.90;;;;;;4904193;29;20175;-89
2023/01/03 09:25:14;;;;;;;26.40;6.13;;;4.10;99.90;;;;;;4892218;29;20063;-88
2023/01/03 09:27:44;;;;;;;49.47;8.50;;;3.90;99.90;;;;;;4889048;29;20064;-88
2023/01/03 09:30:10;;;;;;;48.20;9.60;;;3.80;99.90;;;;;;4894496;29;20499;-88
2023/01/03 09:32:36;;;;;;;45.97;9.38;;;3.30;99.90;;;;;;4875875;29;20068;-88
2023/01/03 09:35:01;;;;;;;57.50;9.77;;;3.20;99.90;;;;;;4872542;29;20071;-88
2023/01/03 09:37:27;;;;;;;47.88;9.55;;;3.30;99.90;;;;;;4872660;29;20103;-89
2023/01/03 09:39:53;;;;;;;35.53;7.63;;;3.20;99.90;;;;;;4896354;29;20043;-90
2023/01/03 09:45:16;;;;;;;60.50;9.88;;;4.20;99.90;;;;;;4917323;29;20043;-90
2023/01/03 09:47:43;;;;;;;36.47;8.88;;;2.80;99.90;;;;;;4913936;29;20452;-88
2023/01/03 09:50:20;;;;;;;35.58;8.60;;;3.00;99.90;;;;;;4868492;29;20082;-89
2023/01/03 10:04:50;;;;;;;44.90;11.25;;;2.80;99.90;;;;;;4908354;29;20072;-88
2023/01/03 10:07:37;;;;;;;41.92;9.82;;;2.90;99.90;;;;;;4901108;29;20552;-89
2023/01/03 10:10:25;;;;;;;44.97;11.23;;;2.90;99.90;;;;;;4891808;29;20043;-90
2023/01/03 10:12:53;;;;;;;;;;;2.90;99.90;;;;;;4893465;29;20071;-88
2023/01/03 10:16:02;;;;;;;37.45;11.15;;;3.10;99.90;;;;;;4897662;29;20391;-89
2023/01/03 10:19:01;;;;;;;54.30;11.30;;;3.00;99.90;;;;;;4869684;29;20100;-89
2023/01/03 10:21:54;;;;;;;42.72;11.90;;;3.00;99.90;;;;;;4911984;29;20039;-86
2023/01/03 10:24:24;;;;;;;43.13;11.15;;;3.20;99.90;;;;;;4906824;29;20051;-88
2023/01/03 10:26:54;;;;;;;42.25;10.80;;;3.90;99.90;;;;;;4912902;29;20072;-88
2023/01/03 10:29:20;;;;;;;51.22;12.73;;;3.20;99.90;;;;;;4899549;29;20039;-88
2023/01/03 10:32:30;;;;;;;57.75;12.35;;;3.30;99.90;;;;;;4871472;29;20096;-89
2023/01/03 10:35:16;;;;;;;45.85;11.93;;;3.30;99.90;;;;;;4892988;29;20082;-89
2023/01/03 10:37:43;;;;;;;59.92;12.75;;;3.40;99.90;;;;;;4878951;29;20051;-89
2023/01/03 10:40:09;;;;;;;56.00;13.23;;;4.60;99.90;;;;;;4872257;29;20040;-85
2023/01/03 10:42:38;;;;;;;62.85;13.73;;;3.40;99.90;;;;;;4899205;29;20048;-89
2023/01/03 10:45:10;;;;;;;79.15;16.63;;;3.40;99.90;;;;;;4894155;29;20047;-88
2023/01/03 10:47:36;;;;;;;53.75;15.27;;;3.40;99.90;;;;;;4894003;29;20047;-88
2023/01/03 10:50:04;;;;;;;56.95;16.13;;;4.10;99.90;;;;;;4898968;29;20052;-89
2023/01/03 10:52:40;;;;;;;52.55;14.52;;;3.50;99.90;;;;;;4911351;29;20537;-88
2023/01/03 10:55:14;;;;;;;67.57;16.17;;;3.60;99.90;;;;;;4898032;29;20453;-88
2023/01/03 10:57:47;;;;;;;59.63;15.48;;;4.60;99.90;;;;;;4901054;29;20123;-88
2023/01/03 11:00:28;;;;;;;58.72;15.95;;;3.60;99.90;;;;;;4899275;29;20131;-89
2023/01/03 11:03:00;;;;;;;59.47;16.63;;;3.70;99.90;;;;;;4892652;29;20140;-88
2023/01/03 11:05:26;;;;;;;56.63;15.63;;;3.80;99.90;;;;;;4892643;29;20067;-89
2023/01/03 11:08:00;;;;;;;46.90;15.60;;;4.50;99.90;;;;;;4883661;29;20058;-89
2023/01/03 11:10:35;;;;;;;44.35;16.48;;;5.20;99.90;;;;;;4896725;29;20035;-89
2023/01/03 11:13:28;;;;;;;43.53;16.95;;;4.60;99.90;;;;;;4894180;29;20031;-89
2023/01/03 11:15:56;;;;;;;46.80;16.30;;;4.00;99.90;;;;;;4893502;29;20396;-89
2023/01/03 11:18:22;;;;;;;46.83;16.63;;;4.50;99.90;;;;;;4893299;29;20123;-88
2023/01/03 11:21:11;;;;;;;49.45;18.75;;;4.70;99.90;;;;;;4889754;29;20462;-89
2023/01/03 11:23:56;;;;;;;47.05;18.83;;;4.40;99.90;;;;;;4891066;29;20401;-89
2023/01/03 11:26:42;;;;;;;48.17;18.30;;;4.60;99.90;;;;;;4892938;29;20062;-89
2023/01/03 11:29:24;;;;;;;45.45;18.95;;;4.80;99.90;;;;;;4909064;29;20048;-89
2023/01/03 11:32:14;;;;;;;47.13;18.02;;;4.80;99.90;;;;;;4891099;29;20051;-89
2023/01/03 11:35:02;;;;;;;46.42;18.23;;;4.90;99.90;;;;;;4909046;29;20043;-89
2023/01/03 11:37:55;;;;;;;46.58;18.40;;;4.90;99.90;;;;;;4908882;29;20035;-88
2023/01/03 11:40:30;;;;;;;46.42;18.45;;;5.00;99.90;;;;;;4897753;29;20036;-89
2023/01/03 11:43:34;;;;;;;45.67;18.13;;;5.10;99.90;;;;;;4894084;29;20036;-90
2023/01/03 11:46:24;;;;;;;46.13;18.35;;;5.10;99.90;;;;;;4893835;29;20115;-89
2023/01/03 11:49:04;;;;;;;48.20;19.42;;;5.10;99.90;;;;;;4893082;29;20036;-89
2023/01/03 11:51:48;;;;;;;45.63;17.40;;;5.90;99.90;;;;;;4895171;29;20083;-88
2023/01/03 11:54:53;;;;;;;43.67;18.38;;;5.20;99.90;;;;;;4892645;29;20048;-90
2023/01/03 11:57:29;;;;;;;50.15;18.67;;;5.30;99.90;;;;;;4891787;29;20036;-89
2023/01/03 12:00:03;;;;;;;52.47;20.40;;;5.20;99.90;;;;;;4897822;29;20504;-90
2023/01/03 12:02:52;;;;;;;50.83;20.08;;;5.40;99.90;;;;;;4894684;29;20134;-89
2023/01/03 12:05:42;;;;;;;46.28;18.65;;;5.40;99.90;;;;;;4896824;29;20449;-90
2023/01/03 12:08:19;;;;;;;45.58;17.48;;;5.50;99.90;;;;;;4893024;29;20020;-89
2023/01/03 12:11:02;;;;;;;51.30;19.55;;;5.50;99.90;;;;;;4900454;29;20098;-91
2023/01/03 12:13:56;;;;;;;51.22;18.38;;;5.50;99.90;;;;;;4897177;29;20044;-91
2023/01/03 12:16:33;;;;;;;44.40;17.20;;;5.60;99.90;;;;;;4896243;29;20493;-90
2023/01/03 12:19:19;;;;;;;52.60;19.55;;;6.00;99.90;;;;;;4901105;29;20042;-88
2023/01/03 12:21:53;;;;;;;46.25;19.33;;;5.70;99.90;;;;;;4891699;29;20036;-90
2023/01/03 12:24:28;;;;;;;54.08;20.33;;;6.20;99.90;;;;;;4897736;29;20076;-88
2023/01/03 12:27:22;;;;;;;56.10;19.98;;;5.80;99.90;;;;;;4907597;29;20070;-90
2023/01/03 12:30:04;;;;;;;54.53;21.23;;;5.80;99.90;;;;;;4893717;29;20086;-88
2023/01/03 12:32:49;;;;;;;52.33;20.45;;;5.80;99.90;;;;;;4895437;29;20068;-88
2023/01/03 12:35:22;;;;;;;52.70;20.42;;;5.90;99.90;;;;;;4901807;29;20040;-87
2023/01/03 12:37:49;;;;;;;53.67;20.33;;;5.90;99.90;;;;;;4896790;29;20047;-88
2023/01/03 12:41:00;;;;;;;52.38;19.42;;;6.30;99.90;;;;;;4893368;29;20039;-88
2023/01/03 12:43:34;;;;;;;50.28;18.80;;;5.90;99.90;;;;;;4898222;29;20135;-89
2023/01/03 12:46:22;;;;;;;46.28;19.50;;;6.00;99.90;;;;;;4911533;29;20062;-89
2023/01/03 12:49:04;;;;;;;45.03;17.35;;;6.00;99.90;;;;;;4898886;29;20100;-88
2023/01/03 12:51:30;;;;;;;41.80;17.70;;;6.10;99.90;;;;;;4909437;29;20048;-89
2023/01/03 12:54:22;;;;;;;43.20;16.52;;;6.10;99.90;;;;;;4872797;29;20048;-88
2023/01/03 12:57:10;;;;;;;42.35;17.00;;;6.10;99.90;;;;;;4910481;29;20040;-89
2023/01/03 13:00:13;;;;;;;41.03;15.23;;;6.20;99.90;;;;;;4897098;29;20032;-89
2023/01/03 13:03:06;;;;;;;33.40;15.23;;;6.20;99.90;;;;;;4899712;29;20040;-89
2023/01/03 13:05:39;;;;;;;31.60;14.93;;;6.30;99.90;;;;;;4899260;29;20032;-89
2023/01/03 13:08:17;;;;;;;37.63;15.88;;;6.20;99.90;;;;;;4894018;29;20043;-89
2023/01/03 13:10:48;;;;;;;37.08;15.25;;;6.30;99.90;;;;;;4900602;29;20051;-89
2023/01/03 13:13:18;;;;;;;38.58;16.35;;;7.00;99.90;;;;;;4895703;29;20044;-89
2023/01/03 13:15:45;;;;;;;35.53;15.90;;;6.40;99.90;;;;;;4895945;29;20139;-89
2023/01/03 13:18:19;;;;;;;38.30;15.65;;;6.40;99.90;;;;;;4893696;29;20063;-89
2023/01/03 13:20:46;;;;;;;35.28;15.52;;;6.40;99.90;;;;;;4896907;29;20067;-89
2023/01/03 13:23:30;;;;;;;32.75;14.65;;;6.70;99.90;;;;;;4895432;29;20059;-89
2023/01/03 13:26:05;;;;;;;29.67;13.60;;;6.30;99.90;;;;;;4908328;29;20040;-89
2023/01/03 13:28:35;;;;;;;30.80;14.68;;;6.30;99.90;;;;;;4894624;29;20036;-89
2023/01/03 13:31:14;;;;;;;27.55;11.43;;;6.90;99.90;;;;;;4879330;29;20219;-89
2023/01/03 13:34:13;;;;;;;25.92;12.07;;;6.40;99.90;;;;;;4896743;29;20127;-89
2023/01/03 13:37:06;;;;;;;29.10;12.60;;;6.50;99.90;;;;;;4852422;29;20052;-89
2023/01/03 13:39:46;;;;;;;29.10;13.13;;;6.50;99.90;;;;;;4897050;29;20036;-89
2023/01/03 13:42:33;;;;;;;30.92;12.80;;;6.50;99.90;;;;;;4892729;29;20374;-89
2023/01/03 13:45:14;;;;;;;27.52;12.27;;;6.50;99.90;;;;;;4896318;29;20067;-89
2023/01/03 13:47:47;;;;;;;26.60;11.48;;;6.50;99.90;;;;;;4896506;29;20099;-89
2023/01/03 13:50:20;;;;;;;26.42;12.10;;;6.60;99.90;;;;;;4893007;29;20048;-88
2023/01/03 13:53:03;;;;;;;28.75;12.55;;;6.60;99.90;;;;;;4897384;29;20095;-89
2023/01/03 13:55:46;;;;;;;26.73;13.40;;;6.60;99.90;;;;;;4894646;29;20075;-89
2023/01/03 13:58:36;;;;;;;27.95;13.18;;;6.60;99.90;;;;;;4896108;29;20104;-89
2023/01/03 14:01:14;;;;;;;26.80;12.50;;;6.60;99.90;;;;;;4897529;29;20110;-90
2023/01/03 14:04:12;;;;;;;23.80;12.13;;;6.60;99.90;;;;;;4895425;29;20497;-92
2023/01/03 14:06:49;;;;;;;27.25;10.98;;;6.60;99.90;;;;;;4895219;29;20040;-90
2023/01/03 14:09:24;;;;;;;;;;;6.70;99.90;;;;;;4892662;29;20494;-89
2023/01/03 14:12:22;;;;;;;23.80;11.40;;;6.70;99.90;;;;;;4897087;29;20371;-90
2023/01/03 14:14:54;;;;;;;32.08;11.00;;;6.60;99.90;;;;;;4856533;29;20087;-90
2023/01/03 14:17:29;;;;;;;24.63;11.55;;;6.70;99.90;;;;;;4895035;29;20052;-89